sensor_id;sensor_type;location;lat;lon;timestamp;P1;durP1;ratioP1;P2;durP2;ratioP2
57842;SDS011;43673;51.058;3.734;2023-04-03T00:00:59;16.30;;;10.50;;
57842;SDS011;43673;51.058;3.734;2023-04-03T00:03:26;13.50;;;9.95;;
57842;SDS011;43673;51.058;3.734;2023-04-03T00:05:51;10.50;;;8.48;;
57842;SDS011;43673;51.058;3.734;2023-04-03T00:08:17;12.38;;;8.93;;
57842;SDS011;43673;51.058;3.734;2023-04-03T00:10:43;10.43;;;9.05;;
57842;SDS011;43673;51.058;3.734;2023-04-03T00:13:09;11.10;;;7.60;;
57842;SDS011;43673;51.058;3.734;2023-04-03T00:15:35;12.98;;;9.05;;
57842;SDS011;43673;51.058;3.734;2023-04-03T00:18:02;10.07;;;7.07;;
57842;SDS011;43673;51.058;3.734;2023-04-03T00:20:28;10.73;;;7.75;;
57842;SDS011;43673;51.058;3.734;2023-04-03T00:22:54;11.30;;;7.93;;
57842;SDS011;43673;51.058;3.734;2023-04-03T00:25:20;11.40;;;8.55;;
57842;SDS011;43673;51.058;3.734;2023-04-03T00:27:46;8.95;;;7.18;;
57842;SDS011;43673;51.058;3.734;2023-04-03T00:30:13;10.15;;;6.93;;
57842;SDS011;43673;51.058;3.734;2023-04-03T00:32:40;11.38;;;7.35;;
57842;SDS011;43673;51.058;3.734;2023-04-03T00:35:06;8.80;;;7.82;;
57842;SDS011;43673;51.058;3.734;2023-04-03T00:37:32;12.00;;;7.82;;
57842;SDS011;43673;51.058;3.734;2023-04-03T00:39:58;12.18;;;8.35;;
57842;SDS011;43673;51.058;3.734;2023-04-03T00:42:24;13.48;;;8.38;;
57842;SDS011;43673;51.058;3.734;2023-04-03T00:47:22;10.77;;;7.13;;
57842;SDS011;43673;51.058;3.734;2023-04-03T00:49:49;15.23;;;8.38;;
57842;SDS011;43673;51.058;3.734;2023-04-03T00:52:17;12.95;;;7.80;;
57842;SDS011;43673;51.058;3.734;2023-04-03T00:54:47;10.07;;;7.75;;
57842;SDS011;43673;51.058;3.734;2023-04-03T00:57:13;12.02;;;7.93;;
57842;SDS011;43673;51.058;3.734;2023-04-03T00:59:41;14.25;;;8.45;;
57842;SDS011;43673;51.058;3.734;2023-04-03T01:02:10;11.52;;;7.47;;
57842;SDS011;43673;51.058;3.734;2023-04-03T01:04:37;12.55;;;8.10;;
57842;SDS011;43673;51.058;3.734;2023-04-03T01:07:12;12.55;;;8.32;;
57842;SDS011;43673;51.058;3.734;2023-04-03T01:09:42;11.90;;;7.95;;
57842;SDS011;43673;51.058;3.734;2023-04-03T01:12:14;10.23;;;7.28;;
57842;SDS011;43673;51.058;3.734;2023-04-03T01:14:47;12.93;;;8.25;;
57842;SDS011;43673;51.058;3.734;2023-04-03T01:20:05;14.48;;;9.55;;
57842;SDS011;43673;51.058;3.734;2023-04-03T01:25:21;14.40;;;9.13;;
57842;SDS011;43673;51.058;3.734;2023-04-03T01:27:47;13.20;;;10.15;;
57842;SDS011;43673;51.058;3.734;2023-04-03T01:30:12;11.73;;;8.68;;
57842;SDS011;43673;51.058;3.734;2023-04-03T01:32:41;15.35;;;7.75;;
57842;SDS011;43673;51.058;3.734;2023-04-03T01:35:08;11.32;;;8.05;;
57842;SDS011;43673;51.058;3.734;2023-04-03T01:37:35;10.75;;;7.57;;
57842;SDS011;43673;51.058;3.734;2023-04-03T01:40:01;16.08;;;8.48;;
57842;SDS011;43673;51.058;3.734;2023-04-03T01:42:28;15.38;;;8.45;;
57842;SDS011;43673;51.058;3.734;2023-04-03T01:44:54;11.15;;;8.30;;
57842;SDS011;43673;51.058;3.734;2023-04-03T01:47:20;11.73;;;8.48;;
57842;SDS011;43673;51.058;3.734;2023-04-03T01:49:46;11.95;;;8.43;;
57842;SDS011;43673;51.058;3.734;2023-04-03T01:52:12;11.30;;;7.50;;
57842;SDS011;43673;51.058;3.734;2023-04-03T01:54:37;11.13;;;7.40;;
57842;SDS011;43673;51.058;3.734;2023-04-03T01:57:03;13.90;;;7.70;;
57842;SDS011;43673;51.058;3.734;2023-04-03T01:59:29;13.93;;;8.38;;
57842;SDS011;43673;51.058;3.734;2023-04-03T02:01:55;14.07;;;8.55;;
57842;SDS011;43673;51.058;3.734;2023-04-03T02:04:21;11.10;;;8.20;;
57842;SDS011;43673;51.058;3.734;2023-04-03T02:06:46;12.93;;;8.50;;
57842;SDS011;43673;51.058;3.734;2023-04-03T02:09:12;16.50;;;9.68;;
57842;SDS011;43673;51.058;3.734;2023-04-03T02:11:38;13.40;;;8.88;;
57842;SDS011;43673;51.058;3.734;2023-04-03T02:14:04;13.18;;;9.43;;
57842;SDS011;43673;51.058;3.734;2023-04-03T02:16:30;11.23;;;8.13;;
57842;SDS011;43673;51.058;3.734;2023-04-03T02:18:56;14.52;;;9.27;;
57842;SDS011;43673;51.058;3.734;2023-04-03T02:21:22;11.57;;;8.63;;
57842;SDS011;43673;51.058;3.734;2023-04-03T02:23:48;9.82;;;8.57;;
57842;SDS011;43673;51.058;3.734;2023-04-03T02:26:14;15.00;;;9.05;;
57842;SDS011;43673;51.058;3.734;2023-04-03T02:28:41;11.15;;;8.40;;
57842;SDS011;43673;51.058;3.734;2023-04-03T02:31:07;13.88;;;8.80;;
57842;SDS011;43673;51.058;3.734;2023-04-03T02:33:34;12.02;;;8.63;;
57842;SDS011;43673;51.058;3.734;2023-04-03T02:36:06;12.77;;;8.75;;
57842;SDS011;43673;51.058;3.734;2023-04-03T02:38:32;13.82;;;7.95;;
57842;SDS011;43673;51.058;3.734;2023-04-03T02:41:02;9.90;;;7.57;;
57842;SDS011;43673;51.058;3.734;2023-04-03T02:43:29;12.13;;;8.75;;
57842;SDS011;43673;51.058;3.734;2023-04-03T02:45:55;11.68;;;8.40;;
57842;SDS011;43673;51.058;3.734;2023-04-03T02:48:21;12.45;;;8.60;;
57842;SDS011;43673;51.058;3.734;2023-04-03T02:50:47;10.05;;;7.68;;
57842;SDS011;43673;51.058;3.734;2023-04-03T02:53:13;17.10;;;9.15;;
57842;SDS011;43673;51.058;3.734;2023-04-03T02:55:38;11.10;;;7.70;;
57842;SDS011;43673;51.058;3.734;2023-04-03T02:58:04;12.52;;;9.13;;
57842;SDS011;43673;51.058;3.734;2023-04-03T03:00:30;12.93;;;7.88;;
57842;SDS011;43673;51.058;3.734;2023-04-03T03:02:56;16.48;;;8.80;;
57842;SDS011;43673;51.058;3.734;2023-04-03T03:05:22;11.82;;;8.45;;
57842;SDS011;43673;51.058;3.734;2023-04-03T03:07:47;14.52;;;8.05;;
57842;SDS011;43673;51.058;3.734;2023-04-03T03:10:13;11.93;;;9.07;;
57842;SDS011;43673;51.058;3.734;2023-04-03T03:12:39;15.18;;;10.55;;
57842;SDS011;43673;51.058;3.734;2023-04-03T03:15:05;13.27;;;9.35;;
57842;SDS011;43673;51.058;3.734;2023-04-03T03:17:32;24.65;;;14.30;;
57842;SDS011;43673;51.058;3.734;2023-04-03T03:19:57;21.70;;;11.27;;
57842;SDS011;43673;51.058;3.734;2023-04-03T03:22:23;46.75;;;21.25;;
57842;SDS011;43673;51.058;3.734;2023-04-03T03:24:51;18.67;;;10.55;;
57842;SDS011;43673;51.058;3.734;2023-04-03T03:27:16;25.42;;;13.50;;
57842;SDS011;43673;51.058;3.734;2023-04-03T03:29:42;20.65;;;12.43;;
57842;SDS011;43673;51.058;3.734;2023-04-03T03:32:08;19.70;;;11.98;;
57842;SDS011;43673;51.058;3.734;2023-04-03T03:34:34;16.25;;;10.18;;
57842;SDS011;43673;51.058;3.734;2023-04-03T03:36:59;23.55;;;14.20;;
57842;SDS011;43673;51.058;3.734;2023-04-03T03:39:26;26.27;;;12.60;;
57842;SDS011;43673;51.058;3.734;2023-04-03T03:41:51;35.15;;;17.33;;
57842;SDS011;43673;51.058;3.734;2023-04-03T03:44:18;18.63;;;11.55;;
57842;SDS011;43673;51.058;3.734;2023-04-03T03:46:47;21.77;;;12.85;;
57842;SDS011;43673;51.058;3.734;2023-04-03T03:49:16;15.77;;;11.90;;
57842;SDS011;43673;51.058;3.734;2023-04-03T03:51:53;15.10;;;11.15;;
57842;SDS011;43673;51.058;3.734;2023-04-03T03:54:19;18.17;;;12.45;;
57842;SDS011;43673;51.058;3.734;2023-04-03T03:56:45;33.90;;;19.63;;
57842;SDS011;43673;51.058;3.734;2023-04-03T03:59:11;17.48;;;12.20;;
57842;SDS011;43673;51.058;3.734;2023-04-03T04:01:37;16.48;;;10.80;;
57842;SDS011;43673;51.058;3.734;2023-04-03T04:04:03;19.15;;;11.88;;
57842;SDS011;43673;51.058;3.734;2023-04-03T04:06:29;13.05;;;9.98;;
57842;SDS011;43673;51.058;3.734;2023-04-03T04:08:55;19.58;;;10.85;;
57842;SDS011;43673;51.058;3.734;2023-04-03T04:11:21;17.17;;;10.38;;
57842;SDS011;43673;51.058;3.734;2023-04-03T04:13:46;13.60;;;10.98;;
57842;SDS011;43673;51.058;3.734;2023-04-03T04:16:12;14.15;;;9.95;;
57842;SDS011;43673;51.058;3.734;2023-04-03T04:18:38;16.85;;;11.32;;
57842;SDS011;43673;51.058;3.734;2023-04-03T04:21:04;14.52;;;9.73;;
57842;SDS011;43673;51.058;3.734;2023-04-03T04:23:30;16.20;;;10.70;;
57842;SDS011;43673;51.058;3.734;2023-04-03T04:25:55;14.55;;;10.82;;
57842;SDS011;43673;51.058;3.734;2023-04-03T04:28:21;17.42;;;10.88;;
57842;SDS011;43673;51.058;3.734;2023-04-03T04:30:47;24.65;;;13.82;;
57842;SDS011;43673;51.058;3.734;2023-04-03T04:33:12;25.27;;;14.27;;
57842;SDS011;43673;51.058;3.734;2023-04-03T04:35:39;18.25;;;12.00;;
57842;SDS011;43673;51.058;3.734;2023-04-03T04:38:06;15.15;;;10.52;;
57842;SDS011;43673;51.058;3.734;2023-04-03T04:40:33;22.10;;;10.93;;
57842;SDS011;43673;51.058;3.734;2023-04-03T04:42:59;17.13;;;11.02;;
57842;SDS011;43673;51.058;3.734;2023-04-03T04:45:25;38.83;;;18.52;;
57842;SDS011;43673;51.058;3.734;2023-04-03T04:47:51;26.67;;;15.32;;
57842;SDS011;43673;51.058;3.734;2023-04-03T04:50:18;18.75;;;11.82;;
57842;SDS011;43673;51.058;3.734;2023-04-03T04:52:43;23.33;;;15.40;;
57842;SDS011;43673;51.058;3.734;2023-04-03T04:55:09;19.33;;;12.20;;
57842;SDS011;43673;51.058;3.734;2023-04-03T04:57:35;21.50;;;11.98;;
57842;SDS011;43673;51.058;3.734;2023-04-03T05:00:02;19.23;;;12.32;;
57842;SDS011;43673;51.058;3.734;2023-04-03T05:02:28;16.75;;;11.93;;
57842;SDS011;43673;51.058;3.734;2023-04-03T05:04:54;24.45;;;12.27;;
57842;SDS011;43673;51.058;3.734;2023-04-03T05:07:19;27.85;;;14.18;;
57842;SDS011;43673;51.058;3.734;2023-04-03T05:09:45;27.17;;;16.27;;
57842;SDS011;43673;51.058;3.734;2023-04-03T05:12:11;25.05;;;15.32;;
57842;SDS011;43673;51.058;3.734;2023-04-03T05:14:36;20.05;;;13.25;;
57842;SDS011;43673;51.058;3.734;2023-04-03T05:17:02;19.60;;;14.20;;
57842;SDS011;43673;51.058;3.734;2023-04-03T05:19:28;23.15;;;14.50;;
57842;SDS011;43673;51.058;3.734;2023-04-03T05:21:53;41.13;;;21.80;;
57842;SDS011;43673;51.058;3.734;2023-04-03T05:24:19;36.20;;;19.83;;
57842;SDS011;43673;51.058;3.734;2023-04-03T05:26:45;21.85;;;15.35;;
57842;SDS011;43673;51.058;3.734;2023-04-03T05:29:11;23.60;;;14.68;;
57842;SDS011;43673;51.058;3.734;2023-04-03T05:31:37;22.88;;;15.25;;
57842;SDS011;43673;51.058;3.734;2023-04-03T05:34:03;23.67;;;15.32;;
57842;SDS011;43673;51.058;3.734;2023-04-03T05:36:28;20.58;;;13.70;;
57842;SDS011;43673;51.058;3.734;2023-04-03T05:38:54;25.35;;;16.27;;
57842;SDS011;43673;51.058;3.734;2023-04-03T05:41:21;21.98;;;14.77;;
57842;SDS011;43673;51.058;3.734;2023-04-03T05:43:47;32.67;;;17.52;;
57842;SDS011;43673;51.058;3.734;2023-04-03T05:46:16;28.40;;;16.65;;
57842;SDS011;43673;51.058;3.734;2023-04-03T05:48:43;22.02;;;15.27;;
57842;SDS011;43673;51.058;3.734;2023-04-03T05:51:21;25.88;;;17.10;;
57842;SDS011;43673;51.058;3.734;2023-04-03T05:53:52;17.98;;;13.40;;
57842;SDS011;43673;51.058;3.734;2023-04-03T05:56:36;20.60;;;13.10;;
57842;SDS011;43673;51.058;3.734;2023-04-03T05:59:01;19.58;;;15.27;;
57842;SDS011;43673;51.058;3.734;2023-04-03T06:01:27;17.42;;;14.27;;
57842;SDS011;43673;51.058;3.734;2023-04-03T06:03:53;16.35;;;13.25;;
57842;SDS011;43673;51.058;3.734;2023-04-03T06:06:19;16.75;;;12.52;;
57842;SDS011;43673;51.058;3.734;2023-04-03T06:08:47;16.63;;;11.43;;
57842;SDS011;43673;51.058;3.734;2023-04-03T06:11:12;15.13;;;10.95;;
57842;SDS011;43673;51.058;3.734;2023-04-03T06:13:38;24.80;;;14.88;;
57842;SDS011;43673;51.058;3.734;2023-04-03T06:16:04;20.98;;;14.20;;
57842;SDS011;43673;51.058;3.734;2023-04-03T06:18:30;27.35;;;15.07;;
57842;SDS011;43673;51.058;3.734;2023-04-03T06:20:56;19.05;;;12.07;;
57842;SDS011;43673;51.058;3.734;2023-04-03T06:23:23;25.50;;;13.88;;
57842;SDS011;43673;51.058;3.734;2023-04-03T06:25:48;14.77;;;9.82;;
57842;SDS011;43673;51.058;3.734;2023-04-03T06:28:14;14.40;;;10.23;;
57842;SDS011;43673;51.058;3.734;2023-04-03T06:30:40;13.73;;;10.73;;
57842;SDS011;43673;51.058;3.734;2023-04-03T06:33:06;17.75;;;11.80;;
57842;SDS011;43673;51.058;3.734;2023-04-03T06:35:31;21.38;;;12.27;;
57842;SDS011;43673;51.058;3.734;2023-04-03T06:37:59;19.48;;;12.65;;
57842;SDS011;43673;51.058;3.734;2023-04-03T06:40:26;27.67;;;15.65;;
57842;SDS011;43673;51.058;3.734;2023-04-03T06:42:51;22.58;;;14.90;;
57842;SDS011;43673;51.058;3.734;2023-04-03T06:45:17;18.75;;;11.13;;
57842;SDS011;43673;51.058;3.734;2023-04-03T06:47:43;14.38;;;11.35;;
57842;SDS011;43673;51.058;3.734;2023-04-03T06:50:10;17.08;;;9.93;;
57842;SDS011;43673;51.058;3.734;2023-04-03T06:52:39;17.60;;;10.75;;
57842;SDS011;43673;51.058;3.734;2023-04-03T06:55:05;19.08;;;9.85;;
57842;SDS011;43673;51.058;3.734;2023-04-03T06:57:31;17.85;;;9.35;;
57842;SDS011;43673;51.058;3.734;2023-04-03T06:59:57;17.35;;;11.13;;
57842;SDS011;43673;51.058;3.734;2023-04-03T07:02:23;13.68;;;9.10;;
57842;SDS011;43673;51.058;3.734;2023-04-03T07:04:48;13.55;;;8.90;;
57842;SDS011;43673;51.058;3.734;2023-04-03T07:07:14;15.73;;;9.18;;
57842;SDS011;43673;51.058;3.734;2023-04-03T07:09:41;16.98;;;9.95;;
57842;SDS011;43673;51.058;3.734;2023-04-03T07:12:07;19.60;;;8.82;;
57842;SDS011;43673;51.058;3.734;2023-04-03T07:14:33;16.73;;;8.95;;
57842;SDS011;43673;51.058;3.734;2023-04-03T07:16:59;13.30;;;8.07;;
57842;SDS011;43673;51.058;3.734;2023-04-03T07:19:25;19.27;;;11.80;;
57842;SDS011;43673;51.058;3.734;2023-04-03T07:21:53;14.75;;;8.93;;
57842;SDS011;43673;51.058;3.734;2023-04-03T07:24:19;14.30;;;8.10;;
57842;SDS011;43673;51.058;3.734;2023-04-03T07:26:48;15.57;;;7.93;;
57842;SDS011;43673;51.058;3.734;2023-04-03T07:29:14;12.98;;;7.80;;
57842;SDS011;43673;51.058;3.734;2023-04-03T07:31:40;14.30;;;7.60;;
57842;SDS011;43673;51.058;3.734;2023-04-03T07:34:06;11.35;;;8.15;;
57842;SDS011;43673;51.058;3.734;2023-04-03T07:36:35;14.27;;;7.95;;
57842;SDS011;43673;51.058;3.734;2023-04-03T07:39:01;13.45;;;8.45;;
57842;SDS011;43673;51.058;3.734;2023-04-03T07:41:30;9.18;;;8.05;;
57842;SDS011;43673;51.058;3.734;2023-04-03T07:43:56;9.20;;;7.97;;
57842;SDS011;43673;51.058;3.734;2023-04-03T07:46:22;11.50;;;8.27;;
57842;SDS011;43673;51.058;3.734;2023-04-03T07:48:48;8.82;;;7.43;;
57842;SDS011;43673;51.058;3.734;2023-04-03T07:51:14;12.75;;;9.15;;
57842;SDS011;43673;51.058;3.734;2023-04-03T07:53:40;10.23;;;7.68;;
57842;SDS011;43673;51.058;3.734;2023-04-03T07:56:06;20.42;;;8.52;;
57842;SDS011;43673;51.058;3.734;2023-04-03T07:58:33;12.23;;;8.90;;
57842;SDS011;43673;51.058;3.734;2023-04-03T08:00:59;14.52;;;8.40;;
57842;SDS011;43673;51.058;3.734;2023-04-03T08:03:25;12.75;;;7.80;;
57842;SDS011;43673;51.058;3.734;2023-04-03T08:05:50;10.77;;;7.93;;
57842;SDS011;43673;51.058;3.734;2023-04-03T08:08:18;10.23;;;8.27;;
57842;SDS011;43673;51.058;3.734;2023-04-03T08:10:52;14.00;;;9.40;;
57842;SDS011;43673;51.058;3.734;2023-04-03T08:13:19;14.95;;;9.88;;
57842;SDS011;43673;51.058;3.734;2023-04-03T08:15:46;15.82;;;8.80;;
57842;SDS011;43673;51.058;3.734;2023-04-03T08:18:13;10.35;;;8.35;;
57842;SDS011;43673;51.058;3.734;2023-04-03T08:20:39;9.18;;;8.00;;
57842;SDS011;43673;51.058;3.734;2023-04-03T08:23:06;15.88;;;10.50;;
57842;SDS011;43673;51.058;3.734;2023-04-03T08:25:33;12.70;;;7.85;;
57842;SDS011;43673;51.058;3.734;2023-04-03T08:30:29;10.52;;;7.65;;
57842;SDS011;43673;51.058;3.734;2023-04-03T08:32:55;12.27;;;8.07;;
57842;SDS011;43673;51.058;3.734;2023-04-03T08:35:21;10.50;;;7.93;;
57842;SDS011;43673;51.058;3.734;2023-04-03T08:37:46;14.35;;;8.63;;
57842;SDS011;43673;51.058;3.734;2023-04-03T08:40:14;13.68;;;10.00;;
57842;SDS011;43673;51.058;3.734;2023-04-03T08:42:54;10.82;;;7.80;;
57842;SDS011;43673;51.058;3.734;2023-04-03T08:48:22;24.08;;;15.57;;
57842;SDS011;43673;51.058;3.734;2023-04-03T08:50:57;11.70;;;8.00;;
57842;SDS011;43673;51.058;3.734;2023-04-03T08:53:30;8.60;;;7.28;;
57842;SDS011;43673;51.058;3.734;2023-04-03T08:56:04;12.02;;;7.75;;
57842;SDS011;43673;51.058;3.734;2023-04-03T08:58:41;8.18;;;7.10;;
57842;SDS011;43673;51.058;3.734;2023-04-03T09:01:39;14.52;;;5.95;;
57842;SDS011;43673;51.058;3.734;2023-04-03T09:04:23;11.00;;;6.00;;
57842;SDS011;43673;51.058;3.734;2023-04-03T09:06:55;11.38;;;7.80;;
57842;SDS011;43673;51.058;3.734;2023-04-03T09:12:04;6.15;;;5.18;;
57842;SDS011;43673;51.058;3.734;2023-04-03T09:23:18;13.30;;;7.18;;
57842;SDS011;43673;51.058;3.734;2023-04-03T09:25:48;12.55;;;6.55;;
57842;SDS011;43673;51.058;3.734;2023-04-03T09:28:19;8.93;;;4.60;;
57842;SDS011;43673;51.058;3.734;2023-04-03T09:30:45;12.40;;;4.88;;
57842;SDS011;43673;51.058;3.734;2023-04-03T09:33:11;10.30;;;6.32;;
57842;SDS011;43673;51.058;3.734;2023-04-03T09:35:40;15.68;;;7.32;;
57842;SDS011;43673;51.058;3.734;2023-04-03T09:40:36;8.07;;;4.75;;
57842;SDS011;43673;51.058;3.734;2023-04-03T09:45:43;10.65;;;4.25;;
57842;SDS011;43673;51.058;3.734;2023-04-03T09:56:09;14.82;;;4.63;;
57842;SDS011;43673;51.058;3.734;2023-04-03T09:59:12;9.80;;;5.20;;
57842;SDS011;43673;51.058;3.734;2023-04-03T10:01:41;8.93;;;5.35;;
57842;SDS011;43673;51.058;3.734;2023-04-03T10:04:22;8.82;;;4.40;;
57842;SDS011;43673;51.058;3.734;2023-04-03T10:06:50;14.48;;;9.10;;
57842;SDS011;43673;51.058;3.734;2023-04-03T10:09:44;8.80;;;4.45;;
57842;SDS011;43673;51.058;3.734;2023-04-03T10:12:21;6.93;;;4.43;;
57842;SDS011;43673;51.058;3.734;2023-04-03T10:14:59;7.43;;;3.72;;
57842;SDS011;43673;51.058;3.734;2023-04-03T10:17:32;13.52;;;7.60;;
57842;SDS011;43673;51.058;3.734;2023-04-03T10:28:03;7.72;;;4.97;;
57842;SDS011;43673;51.058;3.734;2023-04-03T10:36:41;5.57;;;3.42;;
57842;SDS011;43673;51.058;3.734;2023-04-03T10:53:24;10.15;;;3.13;;
57842;SDS011;43673;51.058;3.734;2023-04-03T10:56:20;6.30;;;3.10;;
57842;SDS011;43673;51.058;3.734;2023-04-03T10:59:00;6.35;;;3.00;;
57842;SDS011;43673;51.058;3.734;2023-04-03T11:01:31;11.52;;;5.78;;
57842;SDS011;43673;51.058;3.734;2023-04-03T11:04:09;10.27;;;4.45;;
57842;SDS011;43673;51.058;3.734;2023-04-03T11:09:23;9.43;;;3.47;;
57842;SDS011;43673;51.058;3.734;2023-04-03T11:12:00;5.85;;;2.60;;
57842;SDS011;43673;51.058;3.734;2023-04-03T11:14:32;3.70;;;2.60;;
57842;SDS011;43673;51.058;3.734;2023-04-03T11:17:11;10.10;;;3.35;;
57842;SDS011;43673;51.058;3.734;2023-04-03T11:22:43;5.75;;;3.65;;
57842;SDS011;43673;51.058;3.734;2023-04-03T11:25:16;3.72;;;2.60;;
57842;SDS011;43673;51.058;3.734;2023-04-03T11:27:58;6.95;;;2.92;;
57842;SDS011;43673;51.058;3.734;2023-04-03T11:40:50;4.72;;;2.90;;
57842;SDS011;43673;51.058;3.734;2023-04-03T11:43:20;4.63;;;2.75;;
57842;SDS011;43673;51.058;3.734;2023-04-03T11:46:04;6.00;;;2.30;;
57842;SDS011;43673;51.058;3.734;2023-04-03T12:08:59;2.72;;;2.13;;
57842;SDS011;43673;51.058;3.734;2023-04-03T12:11:31;3.13;;;1.88;;
57842;SDS011;43673;51.058;3.734;2023-04-03T12:19:03;5.82;;;2.50;;
57842;SDS011;43673;51.058;3.734;2023-04-03T12:41:32;6.15;;;3.85;;
57842;SDS011;43673;51.058;3.734;2023-04-03T12:46:58;7.38;;;3.00;;
57842;SDS011;43673;51.058;3.734;2023-04-03T12:49:35;6.05;;;3.13;;
57842;SDS011;43673;51.058;3.734;2023-04-03T12:52:06;8.23;;;3.90;;
57842;SDS011;43673;51.058;3.734;2023-04-03T12:55:04;4.97;;;3.35;;
57842;SDS011;43673;51.058;3.734;2023-04-03T12:57:39;4.38;;;2.47;;
57842;SDS011;43673;51.058;3.734;2023-04-03T13:00:48;4.80;;;2.50;;
57842;SDS011;43673;51.058;3.734;2023-04-03T13:03:00;5.35;;;3.10;;
57842;SDS011;43673;51.058;3.734;2023-04-03T13:08:02;3.95;;;2.20;;
57842;SDS011;43673;51.058;3.734;2023-04-03T13:10:30;5.57;;;2.60;;
57842;SDS011;43673;51.058;3.734;2023-04-03T13:12:58;4.82;;;2.58;;
57842;SDS011;43673;51.058;3.734;2023-04-03T13:15:42;4.68;;;2.03;;
57842;SDS011;43673;51.058;3.734;2023-04-03T13:18:30;3.08;;;2.55;;
57842;SDS011;43673;51.058;3.734;2023-04-03T13:21:05;4.80;;;2.72;;
57842;SDS011;43673;51.058;3.734;2023-04-03T13:23:32;4.35;;;2.38;;
57842;SDS011;43673;51.058;3.734;2023-04-03T13:26:02;7.95;;;2.45;;
57842;SDS011;43673;51.058;3.734;2023-04-03T13:28:32;4.00;;;2.53;;
57842;SDS011;43673;51.058;3.734;2023-04-03T13:31:07;4.45;;;2.53;;
57842;SDS011;43673;51.058;3.734;2023-04-03T13:33:39;6.90;;;2.33;;
57842;SDS011;43673;51.058;3.734;2023-04-03T13:36:24;4.05;;;2.53;;
57842;SDS011;43673;51.058;3.734;2023-04-03T13:41:50;3.35;;;1.90;;
57842;SDS011;43673;51.058;3.734;2023-04-03T13:46:47;4.28;;;2.42;;
57842;SDS011;43673;51.058;3.734;2023-04-03T13:51:44;6.13;;;2.22;;
57842;SDS011;43673;51.058;3.734;2023-04-03T13:54:21;4.95;;;2.40;;
57842;SDS011;43673;51.058;3.734;2023-04-03T13:56:54;3.85;;;2.00;;
57842;SDS011;43673;51.058;3.734;2023-04-03T14:04:28;3.33;;;1.83;;
57842;SDS011;43673;51.058;3.734;2023-04-03T14:07:09;3.88;;;1.80;;
57842;SDS011;43673;51.058;3.734;2023-04-03T14:09:38;4.07;;;1.70;;
57842;SDS011;43673;51.058;3.734;2023-04-03T14:12:06;4.50;;;1.70;;
57842;SDS011;43673;51.058;3.734;2023-04-03T14:14:52;4.70;;;2.22;;
57842;SDS011;43673;51.058;3.734;2023-04-03T14:17:20;2.53;;;1.75;;
57842;SDS011;43673;51.058;3.734;2023-04-03T14:19:48;4.38;;;2.08;;
57842;SDS011;43673;51.058;3.734;2023-04-03T14:24:47;4.60;;;1.95;;
57842;SDS011;43673;51.058;3.734;2023-04-03T14:29:52;3.17;;;1.80;;
57842;SDS011;43673;51.058;3.734;2023-04-03T14:32:19;3.40;;;2.30;;
57842;SDS011;43673;51.058;3.734;2023-04-03T14:34:47;3.22;;;1.98;;
57842;SDS011;43673;51.058;3.734;2023-04-03T14:37:16;1.85;;;1.70;;
57842;SDS011;43673;51.058;3.734;2023-04-03T14:39:44;4.13;;;1.75;;
57842;SDS011;43673;51.058;3.734;2023-04-03T14:42:15;3.55;;;1.80;;
57842;SDS011;43673;51.058;3.734;2023-04-03T14:44:45;13.63;;;4.35;;
57842;SDS011;43673;51.058;3.734;2023-04-03T14:47:16;3.35;;;1.75;;
57842;SDS011;43673;51.058;3.734;2023-04-03T14:49:45;2.83;;;2.03;;
57842;SDS011;43673;51.058;3.734;2023-04-03T14:52:22;3.03;;;2.47;;
57842;SDS011;43673;51.058;3.734;2023-04-03T14:54:53;4.15;;;1.90;;
57842;SDS011;43673;51.058;3.734;2023-04-03T14:57:20;4.15;;;2.00;;
57842;SDS011;43673;51.058;3.734;2023-04-03T14:59:49;3.13;;;2.00;;
57842;SDS011;43673;51.058;3.734;2023-04-03T15:02:31;3.97;;;2.47;;
57842;SDS011;43673;51.058;3.734;2023-04-03T15:05:02;4.32;;;2.00;;
57842;SDS011;43673;51.058;3.734;2023-04-03T15:07:32;3.08;;;2.00;;
57842;SDS011;43673;51.058;3.734;2023-04-03T15:10:23;4.28;;;2.67;;
57842;SDS011;43673;51.058;3.734;2023-04-03T15:12:51;2.60;;;2.20;;
57842;SDS011;43673;51.058;3.734;2023-04-03T15:15:17;2.40;;;1.98;;
57842;SDS011;43673;51.058;3.734;2023-04-03T15:20:19;5.07;;;2.00;;
57842;SDS011;43673;51.058;3.734;2023-04-03T15:22:47;6.85;;;2.67;;
57842;SDS011;43673;51.058;3.734;2023-04-03T15:25:13;7.80;;;2.42;;
57842;SDS011;43673;51.058;3.734;2023-04-03T15:27:39;3.63;;;1.80;;
57842;SDS011;43673;51.058;3.734;2023-04-03T15:30:05;3.22;;;1.92;;
57842;SDS011;43673;51.058;3.734;2023-04-03T15:32:33;6.00;;;2.45;;
57842;SDS011;43673;51.058;3.734;2023-04-03T15:35:00;2.42;;;1.73;;
57842;SDS011;43673;51.058;3.734;2023-04-03T15:37:29;2.47;;;2.22;;
57842;SDS011;43673;51.058;3.734;2023-04-03T15:39:55;3.97;;;2.17;;
57842;SDS011;43673;51.058;3.734;2023-04-03T15:42:24;3.35;;;2.10;;
57842;SDS011;43673;51.058;3.734;2023-04-03T15:44:50;16.50;;;2.65;;
57842;SDS011;43673;51.058;3.734;2023-04-03T15:47:15;2.28;;;1.70;;
57842;SDS011;43673;51.058;3.734;2023-04-03T15:49:41;4.47;;;2.17;;
57842;SDS011;43673;51.058;3.734;2023-04-03T15:52:07;3.33;;;1.92;;
57842;SDS011;43673;51.058;3.734;2023-04-03T15:54:33;1.88;;;1.55;;
57842;SDS011;43673;51.058;3.734;2023-04-03T15:56:59;3.40;;;1.70;;
57842;SDS011;43673;51.058;3.734;2023-04-03T15:59:25;3.88;;;1.75;;
57842;SDS011;43673;51.058;3.734;2023-04-03T16:01:55;2.63;;;1.65;;
57842;SDS011;43673;51.058;3.734;2023-04-03T16:04:21;5.78;;;1.85;;
57842;SDS011;43673;51.058;3.734;2023-04-03T16:06:47;2.50;;;1.80;;
57842;SDS011;43673;51.058;3.734;2023-04-03T16:09:13;4.80;;;2.25;;
57842;SDS011;43673;51.058;3.734;2023-04-03T16:11:39;2.15;;;1.75;;
57842;SDS011;43673;51.058;3.734;2023-04-03T16:14:08;3.63;;;1.55;;
57842;SDS011;43673;51.058;3.734;2023-04-03T16:16:34;3.37;;;2.00;;
57842;SDS011;43673;51.058;3.734;2023-04-03T16:19:00;4.00;;;1.90;;
57842;SDS011;43673;51.058;3.734;2023-04-03T16:21:26;3.13;;;1.90;;
57842;SDS011;43673;51.058;3.734;2023-04-03T16:23:53;3.28;;;2.13;;
57842;SDS011;43673;51.058;3.734;2023-04-03T16:26:20;2.15;;;1.90;;
57842;SDS011;43673;51.058;3.734;2023-04-03T16:28:46;2.50;;;1.80;;
57842;SDS011;43673;51.058;3.734;2023-04-03T16:31:12;5.28;;;1.83;;
57842;SDS011;43673;51.058;3.734;2023-04-03T16:33:38;4.72;;;1.70;;
57842;SDS011;43673;51.058;3.734;2023-04-03T16:36:04;2.42;;;2.05;;
57842;SDS011;43673;51.058;3.734;2023-04-03T16:38:30;4.97;;;2.50;;
57842;SDS011;43673;51.058;3.734;2023-04-03T16:40:56;2.13;;;1.73;;
57842;SDS011;43673;51.058;3.734;2023-04-03T16:43:24;4.20;;;1.73;;
57842;SDS011;43673;51.058;3.734;2023-04-03T16:45:50;2.80;;;1.73;;
57842;SDS011;43673;51.058;3.734;2023-04-03T16:48:16;8.52;;;1.95;;
57842;SDS011;43673;51.058;3.734;2023-04-03T16:50:42;5.80;;;2.20;;
57842;SDS011;43673;51.058;3.734;2023-04-03T16:53:13;2.90;;;1.80;;
57842;SDS011;43673;51.058;3.734;2023-04-03T16:55:38;4.68;;;2.88;;
57842;SDS011;43673;51.058;3.734;2023-04-03T16:58:05;2.42;;;1.80;;
57842;SDS011;43673;51.058;3.734;2023-04-03T17:00:32;3.05;;;1.80;;
57842;SDS011;43673;51.058;3.734;2023-04-03T17:02:59;4.97;;;2.00;;
57842;SDS011;43673;51.058;3.734;2023-04-03T17:05:25;4.10;;;2.03;;
57842;SDS011;43673;51.058;3.734;2023-04-03T17:07:51;4.38;;;2.22;;
57842;SDS011;43673;51.058;3.734;2023-04-03T17:10:17;3.90;;;2.08;;
57842;SDS011;43673;51.058;3.734;2023-04-03T17:12:43;3.42;;;1.85;;
57842;SDS011;43673;51.058;3.734;2023-04-03T17:15:09;3.38;;;2.05;;
57842;SDS011;43673;51.058;3.734;2023-04-03T17:17:35;1.98;;;1.63;;